Time;durP1;ratioP1;P1;durP2;ratioP2;P2;SDS_P1;SDS_P2;PMS_P1;PMS_P2;Temp;Humidity;BMP_temperature;BMP_pressure;BME280_temperature;BME280_humidity;BME280_pressure;Samples;Min_cycle;Max_cycle;Signal;HPM_P1;HPM_P2
2022/07/04 00:02:01;;;;;;;5.22;0.80;;;;;;;10.64;92.15;100979.25;5048389;28;20438;-76
2022/07/04 00:04:29;;;;;;;3.05;0.98;;;;;;;10.37;91.86;100943.59;5055464;28;20463;-77
2022/07/04 00:07:02;;;;;;;8.55;1.50;;;;;;;10.41;92.56;100968.53;5042898;28;20044;-77
2022/07/04 00:09:33;;;;;;;5.32;1.08;;;;;;;10.27;92.85;100955.19;5046330;28;20024;-76
2022/07/04 00:11:58;;;;;;;11.00;1.30;;;;;;;10.28;93.72;100961.50;5076941;28;20096;-76
2022/07/04 00:14:29;;;;;;;6.80;1.30;;;;;;;10.32;93.93;100959.88;5073852;28;20040;-75
2022/07/04 00:17:11;;;;;;;2.65;0.73;;;;;;;10.27;94.22;100963.38;5059230;28;20032;-77
2022/07/04 00:20:04;;;;;;;3.78;0.93;;;;;;;10.31;95.00;100983.69;5050902;28;20053;-76
2022/07/04 00:25:55;;;;;;;;;;;;;;;;;;;;;
2022/07/04 00:28:21;;;;;;;3.15;0.85;;;;;;;10.06;95.09;100955.94;5059953;28;20027;-75
2022/07/04 00:30:46;;;;;;;1.38;0.65;;;;;;;10.16;95.42;100977.97;5058692;28;20037;-76
2022/07/04 00:33:32;;;;;;;9.25;0.98;;;;;;;10.02;95.13;100960.28;5055426;28;20024;-77
2022/07/04 00:36:11;;;;;;;4.97;1.00;;;;;;;10.06;95.38;100975.06;5065687;28;20048;-79
2022/07/04 00:38:37;;;;;;;4.70;1.00;;;;;;;9.86;95.16;100951.81;5074706;28;20027;-78
2022/07/04 00:41:29;;;;;;;2.10;0.90;;;;;;;9.95;95.20;100972.19;5080277;28;20081;-77
2022/07/04 00:44:06;;;;;;;6.38;0.93;;;;;;;9.90;95.69;100965.81;5070626;28;20044;-77
2022/07/04 00:46:39;;;;;;;2.30;0.75;;;;;;;9.82;95.93;100956.13;5073607;28;20024;-78
2022/07/04 00:49:27;;;;;;;2.60;0.80;;;;;;;9.96;95.73;100979.31;5069151;28;20021;-78
2022/07/04 00:55:24;;;;;;;5.50;1.02;;;;;;;9.75;95.91;100960.91;4985638;28;20135;-77
2022/07/04 01:10:54;;;;;;;6.88;0.70;;;;;;;9.87;95.88;100963.56;4939979;28;20097;-76
2022/07/04 01:13:23;;;;;;;5.05;0.85;;;;;;;9.87;96.17;100953.50;5034822;28;20149;-76
2022/07/04 01:15:50;;;;;;;6.70;0.80;;;;;;;9.96;95.83;100973.84;5051710;28;20032;-77
2022/07/04 01:18:38;;;;;;;3.72;1.05;;;;;;;9.76;95.88;100935.28;5032959;28;20060;-76
2022/07/04 01:21:26;;;;;;;5.18;1.33;;;;;;;9.96;95.88;100962.09;5035611;28;20059;-77
2022/07/04 01:24:26;;;;;;;1.95;0.80;;;;;;;9.83;95.79;100937.81;5073126;28;20494;-77
2022/07/04 01:27:18;;;;;;;3.35;0.90;;;;;;;9.92;95.84;100953.56;5027549;28;20111;-76
2022/07/04 01:29:51;;;;;;;3.50;0.65;;;;;;;9.77;96.01;100934.19;5068028;28;20036;-76
2022/07/04 01:32:26;;;;;;;2.50;1.00;;;;;;;9.85;95.92;100952.91;5040190;28;20025;-77
2022/07/04 01:35:17;;;;;;;;;;;;;;;;;;;;;
2022/07/04 01:38:31;;;;;;;;;;;;;;;;;;;;;
2022/07/04 01:40:59;;;;;;;1.63;0.52;;;;;;;9.80;95.67;100950.09;5048928;28;21383;-75
2022/07/04 01:43:25;;;;;;;2.75;0.95;;;;;;;9.70;95.62;100941.72;5059412;28;20047;-76
2022/07/04 01:45:50;;;;;;;2.45;0.75;;;;;;;9.72;95.71;100950.50;5057343;28;20020;-75
2022/07/04 01:48:58;;;;;;;1.65;0.70;;;;;;;9.72;95.52;100955.94;5056032;28;20063;-77
2022/07/04 01:51:28;;;;;;;3.90;1.10;;;;;;;9.56;95.89;100928.41;5050465;28;20403;-76
2022/07/04 01:54:09;;;;;;;;;;;;;;;;;;;;;
2022/07/04 01:57:17;;;;;;;2.10;0.88;;;;;;;9.51;95.43;100928.31;5071478;28;20131;-76
2022/07/04 02:02:47;;;;;;;1.98;0.80;;;;;;;9.53;95.56;100945.25;5065751;28;20071;-75
2022/07/04 02:05:26;;;;;;;;;;;;;;;;;;;;;
2022/07/04 02:09:14;;;;;;;2.33;0.75;;;;;;;9.42;95.60;100913.41;5075354;28;20103;-77
2022/07/04 02:14:43;;;;;;;2.13;0.70;;;;;;;9.48;95.88;100945.19;5070123;28;20527;-76
2022/07/04 02:17:28;;;;;;;6.97;0.60;;;;;;;9.21;96.05;100926.69;5066666;28;20036;-75
2022/07/04 02:20:23;;;;;;;1.45;0.90;;;;;;;9.15;95.61;100933.09;5069408;28;20111;-74
2022/07/04 02:22:49;;;;;;;3.47;0.90;;;;;;;9.08;95.27;100935.16;5043932;28;20040;-77
2022/07/04 02:25:24;;;;;;;2.47;0.90;;;;;;;8.88;95.99;100920.06;5078362;28;20542;-76
2022/07/04 02:28:21;;;;;;;;;;;;;;;;;;;;;
2022/07/04 02:30:55;;;;;;;1.35;0.70;;;;;;;8.76;96.79;100911.09;5064015;28;20099;-77
2022/07/04 02:33:21;;;;;;;;;;;;;;;8.88;96.58;100941.88;5056258;28;20459;-76
2022/07/04 02:35:46;;;;;;;2.08;0.88;;;;;;;8.63;97.06;100911.34;5061110;28;19917;-76
2022/07/04 02:38:22;;;;;;;;;;;;;;;;;;;;;
2022/07/04 02:40:47;;;;;;;2.85;1.00;;;;;;;8.59;97.42;100919.19;5066557;28;20031;-77
2022/07/04 02:43:30;;;;;;;2.25;0.93;;;;;;;8.44;97.29;100916.97;5059959;28;20068;-76
2022/07/04 02:45:55;;;;;;;2.42;1.10;;;;;;;8.42;97.52;100915.53;5033127;28;20059;-76
2022/07/04 02:48:30;;;;;;;3.90;0.90;;;;;;;8.50;98.08;100940.53;5059594;28;20061;-74
2022/07/04 02:50:56;;;;;;;8.27;1.48;;;;;;;8.41;98.53;100925.59;5054345;28;20098;-75
2022/07/04 02:53:26;;;;;;;7.28;1.00;;;;;;;8.38;98.90;100920.59;5040345;28;20032;-77
2022/07/04 02:55:54;;;;;;;5.28;1.30;;;;;;;8.47;99.20;100929.28;5075341;28;20039;-75
2022/07/04 02:58:43;;;;;;;2.70;1.00;;;;;;;8.53;99.36;100929.16;5044543;28;20092;-76
2022/07/04 03:01:19;;;;;;;2.97;0.90;;;;;;;8.45;99.71;100915.88;5060948;28;20032;-77
2022/07/04 03:04:02;;;;;;;5.30;1.20;;;;;;;8.47;100.00;100907.47;5076807;28;20089;-76
2022/07/04 03:06:42;;;;;;;;;;;;;;;;;;;;;
2022/07/04 03:09:08;;;;;;;4.40;1.05;;;;;;;8.54;100.00;100909.03;5071813;28;20031;-76
2022/07/04 03:11:34;;;;;;;6.43;1.60;;;;;;;8.58;100.00;100924.88;5043587;28;20124;-76
2022/07/04 03:14:02;;;;;;;3.42;1.10;;;;;;;8.74;100.00;100937.75;5077866;28;20497;-75
2022/07/04 03:16:27;;;;;;;5.20;1.20;;;;;;;8.82;100.00;100951.03;5058449;28;20094;-75
2022/07/04 03:18:53;;;;;;;5.00;1.08;;;;;;;8.86;100.00;100954.94;5068084;28;20036;-76
2022/07/04 03:21:19;;;;;;;3.88;1.35;;;;;;;8.86;100.00;100933.13;5054747;28;20033;-75
2022/07/04 03:23:57;;;;;;;5.10;1.40;;;;;;;8.88;100.00;100932.88;5023402;28;20024;-74
2022/07/04 03:26:27;;;;;;;8.13;1.45;;;;;;;8.98;100.00;100956.78;5077090;28;20028;-74
2022/07/04 03:28:55;;;;;;;3.38;1.23;;;;;;;8.88;100.00;100941.88;5074226;28;20150;-76
2022/07/04 03:31:21;;;;;;;7.05;1.67;;;;;;;8.86;100.00;100938.56;5074430;28;20114;-75
2022/07/04 03:33:50;;;;;;;5.40;1.60;;;;;;;8.93;100.00;100940.31;5055427;28;20119;-75
2022/07/04 03:36:21;;;;;;;3.25;1.42;;;;;;;8.87;100.00;100934.75;5074930;28;20585;-74
2022/07/04 03:38:49;;;;;;;2.92;1.63;;;;;;;8.86;100.00;100938.56;5055795;28;20028;-75
2022/07/04 03:41:17;;;;;;;2.63;1.42;;;;;;;8.96;100.00;100953.47;5039686;28;20028;-75
2022/07/04 03:43:45;;;;;;;6.03;1.27;;;;;;;8.95;100.00;100951.81;5075760;28;20089;-75
2022/07/04 03:46:10;;;;;;;3.70;1.40;;;;;;;8.86;100.00;100938.56;5044525;28;20044;-75
2022/07/04 03:48:38;;;;;;;3.40;1.38;;;;;;;8.84;100.00;100935.25;5052662;28;20024;-80
2022/07/04 03:51:03;;;;;;;6.00;1.60;;;;;;;8.91;100.00;100941.38;5034743;28;20082;-75
2022/07/04 03:53:29;;;;;;;3.58;1.30;;;;;;;8.91;100.00;100946.84;5042815;28;20032;-75
2022/07/04 03:56:22;;;;;;;3.33;1.27;;;;;;;8.91;100.00;100933.19;5057605;28;20459;-79
2022/07/04 03:58:48;;;;;;;5.97;1.63;;;;;;;9.20;100.00;100959.66;5056190;28;20032;-76
2022/07/04 04:01:18;;;;;;;4.22;1.63;;;;;;;9.22;100.00;100952.88;5041976;28;20032;-76
2022/07/04 04:06:29;;;;;;;4.57;1.35;;;;;;;9.28;100.00;100953.00;5073513;28;20066;-77
2022/07/04 04:09:01;;;;;;;4.20;1.33;;;;;;;9.28;100.00;100944.81;5051508;28;20048;-76
2022/07/04 04:11:30;;;;;;;4.95;1.65;;;;;;;9.33;100.00;100959.38;5042808;28;20082;-76
2022/07/04 04:13:58;;;;;;;6.30;1.20;;;;;;;9.35;100.00;100953.69;5058082;28;20028;-76
2022/07/04 04:16:24;;;;;;;3.55;1.27;;;;;;;9.40;100.00;100953.75;5050110;28;20043;-77
2022/07/04 04:18:49;;;;;;;9.05;1.60;;;;;;;9.47;100.00;100973.53;5074406;28;20110;-76
2022/07/04 04:21:17;;;;;;;3.78;1.10;;;;;;;9.48;99.48;100977.13;5040650;28;20031;-75
2022/07/04 04:23:42;;;;;;;2.03;1.23;;;;;;;9.46;98.92;100974.59;5058436;28;20029;-76
2022/07/04 04:26:08;;;;;;;3.85;1.30;;;;;;;9.39;99.04;100963.03;5076093;28;20025;-75
2022/07/04 04:28:36;;;;;;;2.50;1.08;;;;;;;9.45;99.10;100978.44;5042297;28;20481;-75
2022/07/04 04:31:19;;;;;;;5.15;1.20;;;;;;;9.37;98.92;100965.16;5043444;28;20036;-75
2022/07/04 04:33:45;;;;;;;2.92;1.10;;;;;;;9.47;98.44;100976.28;5073674;28;20020;-76
2022/07/04 04:36:10;;;;;;;3.72;1.10;;;;;;;9.53;98.51;100980.75;5041119;28;20032;-76
2022/07/04 04:38:35;;;;;;;5.28;1.40;;;;;;;9.56;98.47;100985.75;5072740;28;20032;-75
2022/07/04 04:41:30;;;;;;;2.78;0.80;;;;;;;9.59;97.99;100990.72;5073822;28;20149;-77
2022/07/04 04:43:55;;;;;;;1.67;0.77;;;;;;;9.64;97.61;100980.94;5051314;28;20037;-73
2022/07/04 04:46:23;;;;;;;3.63;0.90;;;;;;;9.65;96.91;100980.72;5053825;28;20357;-75
2022/07/04 04:48:48;;;;;;;3.55;1.02;;;;;;;9.68;96.63;100976.63;5022318;28;20033;-75
2022/07/04 04:51:14;;;;;;;6.78;1.27;;;;;;;9.65;96.48;100972.53;5037693;28;20037;-75
2022/07/04 04:53:39;;;;;;;3.67;1.20;;;;;;;9.74;95.79;100986.59;5017508;28;20044;-74
2022/07/04 04:56:05;;;;;;;1.10;0.90;;;;;;;9.73;95.96;100985.75;5002936;28;20025;-75
2022/07/04 04:58:30;;;;;;;4.47;1.00;;;;;;;9.80;95.62;100993.78;5037764;28;20063;-75
2022/07/04 05:00:56;;;;;;;6.03;1.20;;;;;;;9.85;95.55;100993.88;5001135;28;20111;-75
2022/07/04 05:03:21;;;;;;;4.93;1.00;;;;;;;9.89;94.83;100989.56;5053392;28;20017;-74
2022/07/04 05:05:47;;;;;;;8.10;1.45;;;;;;;9.94;95.04;100989.66;5017760;28;20041;-74
2022/07/04 05:08:13;;;;;;;3.25;0.80;;;;;;;10.01;94.50;100991.41;5038348;28;20086;-75
2022/07/04 05:10:39;;;;;;;4.45;0.98;;;;;;;10.06;94.39;100996.94;5036210;28;20021;-75
2022/07/04 05:13:05;;;;;;;4.32;1.02;;;;;;;10.16;94.16;100999.81;5022430;28;20796;-75
2022/07/04 05:15:30;;;;;;;8.93;1.40;;;;;;;10.25;93.42;101003.81;5015261;28;20033;-75
2022/07/04 05:17:56;;;;;;;5.03;0.75;;;;;;;10.31;92.36;101005.53;5040588;28;20023;-73
2022/07/04 05:20:22;;;;;;;2.45;1.00;;;;;;;10.31;92.22;100997.34;5051178;28;20043;-75
2022/07/04 05:22:47;;;;;;;2.80;0.88;;;;;;;10.30;92.26;101000.31;5023515;28;20021;-76
2022/07/04 05:25:12;;;;;;;1.88;0.98;;;;;;;10.29;91.88;100995.94;5005624;28;20041;-74
2022/07/04 05:27:38;;;;;;;3.35;1.00;;;;;;;10.28;91.91;100997.84;5052707;28;20058;-75
2022/07/04 05:30:04;;;;;;;3.67;1.00;;;;;;;10.29;91.56;100999.50;5037056;28;20108;-75
2022/07/04 05:32:30;;;;;;;8.98;1.30;;;;;;;10.35;91.93;101002.34;5055231;28;20035;-75
2022/07/04 05:34:56;;;;;;;2.05;1.08;;;;;;;10.45;92.11;101003.34;5020809;28;20028;-75
2022/07/04 05:37:21;;;;;;;2.20;1.00;;;;;;;10.49;91.21;101003.66;5014641;28;20025;-75
2022/07/04 05:39:47;;;;;;;7.32;0.95;;;;;;;10.54;90.92;101002.88;5021345;28;20059;-74
2022/07/04 05:42:12;;;;;;;1.23;0.88;;;;;;;10.56;91.17;101004.31;5030391;28;20048;-74
2022/07/04 05:44:38;;;;;;;2.90;0.90;;;;;;;10.59;90.57;101008.44;5055637;28;20115;-75
2022/07/04 05:47:04;;;;;;;3.97;1.10;;;;;;;10.63;90.60;100999.47;5073723;28;20123;-75
2022/07/04 05:49:29;;;;;;;4.47;1.20;;;;;;;10.68;91.08;101003.38;5074472;28;20037;-74
2022/07/04 05:51:59;;;;;;;3.05;1.00;;;;;;;10.84;91.10;101005.22;5073630;28;20450;-75
2022/07/04 05:54:24;;;;;;;2.63;1.10;;;;;;;11.03;90.03;101004.91;5058832;28;20023;-75
2022/07/04 05:56:50;;;;;;;5.72;1.42;;;;;;;11.17;89.37;101011.66;5062422;28;20471;-76
2022/07/04 05:59:23;;;;;;;2.40;1.08;;;;;;;11.28;89.22;100998.91;5081001;28;20035;-77
2022/07/04 06:01:58;;;;;;;9.23;1.40;;;;;;;11.42;88.22;100999.31;5031450;28;20024;-74
2022/07/04 06:04:51;;;;;;;4.53;0.98;;;;;;;11.59;88.32;100993.75;5054935;28;20033;-76
2022/07/04 06:07:17;;;;;;;2.05;1.00;;;;;;;11.74;87.73;100984.84;5076401;28;20024;-76
2022/07/04 06:09:43;;;;;;;9.88;1.20;;;;;;;11.90;87.04;100988.53;5059965;28;20116;-74
2022/07/04 06:12:09;;;;;;;3.55;1.27;;;;;;;12.00;85.64;100988.66;5059253;28;20036;-77
2022/07/04 06:14:40;;;;;;;2.67;0.93;;;;;;;12.01;85.86;100974.69;5060879;28;20020;-78
2022/07/04 06:17:09;;;;;;;2.63;0.80;;;;;;;12.18;85.22;100995.66;5062564;28;20034;-78
2022/07/04 06:20:03;;;;;;;10.13;1.17;;;;;;;12.17;85.46;100981.13;5059717;28;20028;-76
2022/07/04 06:22:48;;;;;;;5.38;1.00;;;;;;;12.27;85.25;100983.13;5018354;28;20052;-77
2022/07/04 06:25:19;;;;;;;11.95;1.33;;;;;;;12.50;84.78;100981.06;5081829;28;20478;-75
2022/07/04 06:27:47;;;;;;;1.30;0.90;;;;;;;12.75;84.08;101000.41;5059656;28;20463;-75
2022/07/04 06:30:14;;;;;;;1.67;0.60;;;;;;;12.88;83.51;100987.31;5077702;28;20060;-77
2022/07/04 06:32:51;;;;;;;4.15;1.25;;;;;;;13.22;82.79;100997.88;5043102;28;20029;-77
2022/07/04 06:38:03;;;;;;;7.03;0.88;;;;;;;13.79;80.63;100985.91;5078222;28;20024;-77
2022/07/04 06:40:29;;;;;;;6.93;0.77;;;;;;;14.02;79.17;100989.22;5059929;28;20025;-76
2022/07/04 06:42:58;;;;;;;2.03;0.50;;;;;;;14.10;77.83;100991.41;5077422;28;20041;-76
2022/07/04 06:45:26;;;;;;;4.72;0.70;;;;;;;14.24;77.00;101007.38;5079159;28;20035;-77
2022/07/04 06:47:52;;;;;;;2.05;0.70;;;;;;;14.28;76.37;101003.78;5061366;28;20043;-77
2022/07/04 06:50:20;;;;;;;2.97;0.70;;;;;;;14.38;76.61;101007.59;5081297;28;20028;-77
2022/07/04 06:52:46;;;;;;;2.55;0.73;;;;;;;14.34;75.88;100984.50;5055018;28;20020;-75
2022/07/04 06:55:17;;;;;;;0.80;0.55;;;;;;;14.50;75.27;100988.88;5053979;28;20121;-74
2022/07/04 06:57:43;;;;;;;2.08;0.57;;;;;;;14.64;75.18;101000.16;5062661;28;20027;-76
2022/07/04 07:00:10;;;;;;;0.80;0.50;;;;;;;14.68;74.24;100984.72;5068347;28;20107;-77
2022/07/04 07:02:38;;;;;;;6.15;1.38;;;;;;;14.80;73.77;101001.75;5054432;28;20048;-77
2022/07/04 07:05:07;;;;;;;3.13;0.90;;;;;;;14.90;73.31;101003.66;5061331;28;20078;-77
2022/07/04 07:07:33;;;;;;;1.83;0.82;;;;;;;15.12;72.71;101000.53;5078819;28;20025;-77
2022/07/04 07:10:15;;;;;;;4.13;0.70;;;;;;;15.31;71.66;101019.19;5057761;28;20081;-76
2022/07/04 07:13:07;;;;;;;3.45;0.80;;;;;;;15.29;71.04;101004.88;5041631;28;20025;-75
2022/07/04 07:15:35;;;;;;;2.15;0.73;;;;;;;15.50;70.95;101028.44;5048766;28;20466;-76
2022/07/04 07:18:32;;;;;;;2.30;0.70;;;;;;;15.62;70.94;101035.53;5058523;28;20034;-75
2022/07/04 07:20:57;;;;;;;3.17;0.68;;;;;;;15.64;70.80;101011.28;5039092;28;20071;-76
2022/07/04 07:23:23;;;;;;;2.00;0.60;;;;;;;15.92;70.28;101022.69;5028105;28;20383;-76
2022/07/04 07:25:51;;;;;;;0.40;0.40;;;;;;;16.21;69.52;101020.78;5078061;28;20036;-75
2022/07/04 07:28:18;;;;;;;3.25;1.02;;;;;;;16.56;68.42;101020.75;5060953;28;20028;-76
2022/07/04 07:30:43;;;;;;;2.40;0.60;;;;;;;16.60;66.84;101007.97;5061161;28;20498;-75
2022/07/04 07:33:16;;;;;;;3.05;0.60;;;;;;;16.64;67.28;101016.50;5079302;28;20029;-75
2022/07/04 07:35:42;;;;;;;4.78;0.90;;;;;;;16.91;66.91;101011.25;5049335;28;20028;-75
2022/07/04 07:38:09;;;;;;;4.57;0.90;;;;;;;16.98;65.92;101021.13;5043716;28;20050;-76
2022/07/04 07:40:37;;;;;;;2.53;0.70;;;;;;;16.88;66.59;101017.38;5027180;28;20032;-75
2022/07/04 07:43:14;;;;;;;2.42;0.70;;;;;;;16.88;66.20;101017.38;5057039;28;20041;-74
2022/07/04 07:45:39;;;;;;;1.95;0.55;;;;;;;16.59;66.72;101025.69;5058209;28;20372;-75
2022/07/04 07:48:06;;;;;;;3.28;0.85;;;;;;;16.50;67.63;101025.50;5050252;28;20013;-75
2022/07/04 07:50:37;;;;;;;1.88;0.70;;;;;;;16.45;67.29;101030.25;5055342;28;20502;-76
2022/07/04 07:53:10;;;;;;;2.53;0.68;;;;;;;16.23;68.40;101023.25;5047681;28;20227;-77
2022/07/04 07:55:41;;;;;;;3.30;0.75;;;;;;;16.20;68.51;101027.41;5051057;28;20041;-75
2022/07/04 07:58:07;;;;;;;1.50;0.52;;;;;;;16.39;68.63;101037.75;5036362;28;20111;-76
2022/07/04 08:01:10;;;;;;;4.05;0.73;;;;;;;16.37;68.24;101020.66;5022136;28;20330;-76
2022/07/04 08:06:42;;;;;;;1.30;0.80;;;;;;;16.18;68.42;101032.41;5055186;28;20116;-76
2022/07/04 08:09:16;;;;;;;2.13;0.70;;;;;;;16.48;68.18;101038.75;5050925;28;20048;-75
2022/07/04 08:11:54;;;;;;;;;;;;;;;;;;;;;
2022/07/04 08:14:32;;;;;;;1.70;0.50;;;;;;;17.87;63.15;101031.53;5056198;28;20661;-73
2022/07/04 08:17:26;;;;;;;21.05;1.17;;;;;;;18.36;61.81;101025.78;5053678;28;20075;-76
2022/07/04 08:19:54;;;;;;;3.42;0.73;;;;;;;18.69;60.41;101031.25;5018685;28;20044;-76
2022/07/04 08:22:20;;;;;;;2.85;0.60;;;;;;;18.82;59.28;101050.66;5053896;28;20032;-75
2022/07/04 08:24:45;;;;;;;4.45;0.68;;;;;;;18.89;59.12;101039.19;5040920;28;20386;-75
2022/07/04 08:27:13;;;;;;;3.88;0.70;;;;;;;19.02;58.42;101041.13;5038269;28;20041;-75
2022/07/04 08:29:38;;;;;;;1.27;0.30;;;;;;;19.35;58.28;101052.13;5053503;28;20037;-76
2022/07/04 08:32:07;;;;;;;1.55;0.50;;;;;;;19.95;57.01;101049.44;5053650;28;20032;-76
2022/07/04 08:34:42;;;;;;;3.97;0.68;;;;;;;19.93;55.88;101044.19;5052290;28;20061;-76
2022/07/04 08:37:08;;;;;;;2.83;0.47;;;;;;;19.87;55.41;101051.81;5052717;28;20082;-76
2022/07/04 08:39:33;;;;;;;1.75;0.60;;;;;;;20.02;55.12;101056.19;5055920;28;20124;-74
2022/07/04 08:42:02;;;;;;;5.47;0.50;;;;;;;20.13;54.16;101059.50;5051885;28;20109;-74
2022/07/04 08:44:29;;;;;;;1.30;0.32;;;;;;;20.36;53.29;101057.56;5057724;28;20545;-74
2022/07/04 08:46:54;;;;;;;2.47;0.52;;;;;;;20.58;51.94;101053.09;5057424;28;20028;-75
2022/07/04 08:49:30;;;;;;;1.73;0.47;;;;;;;20.96;52.04;101061.00;5058217;28;20637;-74
2022/07/04 08:52:05;;;;;;;2.90;0.60;;;;;;;21.00;49.80;101050.88;5075228;28;20032;-74
2022/07/04 09:00:04;;;;;;;3.05;0.40;;;;;;;19.94;51.15;101045.81;5073206;28;20031;-75
2022/07/04 09:02:29;;;;;;;1.20;0.47;;;;;;;19.73;51.68;101039.06;5056906;28;20043;-74
2022/07/04 09:04:55;;;;;;;2.67;0.70;;;;;;;19.80;51.66;101034.78;5054902;28;20028;-74
2022/07/04 09:07:20;;;;;;;5.82;0.80;;;;;;;19.68;52.71;101035.31;5072631;28;20024;-74
2022/07/04 09:09:46;;;;;;;1.85;0.50;;;;;;;19.70;52.60;101033.03;5057588;28;20024;-73
2022/07/04 09:12:11;;;;;;;1.45;0.50;;;;;;;19.92;51.91;101031.44;5075310;28;20032;-74
2022/07/04 09:14:39;;;;;;;3.88;0.50;;;;;;;20.07;51.24;101035.00;5057383;28;20103;-75
2022/07/04 09:17:05;;;;;;;6.30;0.80;;;;;;;20.18;49.55;101031.63;5039065;28;20033;-75
2022/07/04 09:19:31;;;;;;;2.08;0.43;;;;;;;20.74;49.58;101029.34;5052973;28;20017;-74
2022/07/04 09:22:03;;;;;;;3.30;0.77;;;;;;;21.10;47.40;101036.69;5059538;28;20017;-75
2022/07/04 09:25:03;;;;;;;4.78;0.60;;;;;;;20.76;48.18;101023.47;5052019;28;20097;-75
2022/07/04 09:27:41;;;;;;;3.50;0.70;;;;;;;20.97;47.60;101020.94;5012347;28;20040;-74
2022/07/04 09:30:08;;;;;;;2.67;0.57;;;;;;;21.91;47.51;101019.78;5056500;28;20044;-75
2022/07/04 09:32:51;;;;;;;2.03;0.80;;;;;;;22.74;42.79;101021.41;5059275;28;20064;-74
2022/07/04 09:35:20;;;;;;;0.93;0.60;;;;;;;22.96;42.75;101020.31;5075147;28;20408;-74
2022/07/04 09:37:59;;;;;;;0.75;0.35;;;;;;;23.46;43.30;101038.25;5072429;28;20023;-75
2022/07/04 09:40:33;;;;;;;1.70;0.43;;;;;;;23.30;41.70;101018.50;5055297;28;20032;-74
2022/07/04 09:43:11;;;;;;;2.22;0.40;;;;;;;23.36;41.47;101021.91;5074597;28;20055;-75
2022/07/04 09:45:54;;;;;;;3.55;0.47;;;;;;;23.43;41.42;101027.78;5076266;28;20025;-74
2022/07/04 09:48:19;;;;;;;2.20;0.70;;;;;;;23.29;41.46;101032.78;5055443;28;20129;-75
2022/07/04 09:50:45;;;;;;;1.40;0.57;;;;;;;23.08;41.92;101027.97;5055993;28;20048;-75
2022/07/04 09:53:13;;;;;;;2.45;0.75;;;;;;;22.93;41.96;101031.34;5065682;28;20025;-76
2022/07/04 09:55:39;;;;;;;1.35;0.30;;;;;;;22.79;41.87;101026.81;5077430;28;20061;-74
2022/07/04 09:58:09;;;;;;;0.70;0.25;;;;;;;22.62;42.68;101038.84;5055200;28;20036;-75
2022/07/04 10:00:48;;;;;;;0.88;0.43;;;;;;;22.93;42.81;101031.34;5072355;28;20028;-75
2022/07/04 10:03:37;;;;;;;2.58;0.60;;;;;;;23.60;42.36;101020.44;5073721;28;20040;-75
2022/07/04 10:06:15;;;;;;;2.45;0.50;;;;;;;23.99;40.77;101032.28;5073158;28;20028;-75
2022/07/04 10:08:43;;;;;;;2.45;0.60;;;;;;;23.12;41.66;101028.16;5071176;28;20059;-76
2022/07/04 10:11:11;;;;;;;4.03;0.55;;;;;;;22.52;43.33;101027.25;5056849;28;20090;-75
2022/07/04 10:13:39;;;;;;;3.92;0.63;;;;;;;22.60;44.13;101034.72;5054402;28;20100;-74
2022/07/04 10:16:07;;;;;;;1.20;0.63;;;;;;;22.80;43.65;101016.47;5071836;28;20029;-74
2022/07/04 10:18:34;;;;;;;5.22;0.80;;;;;;;23.02;42.29;101021.75;5072326;28;20024;-74
2022/07/04 10:20:59;;;;;;;4.15;1.00;;;;;;;23.30;42.90;101012.09;5076357;28;20090;-73
2022/07/04 10:23:31;;;;;;;5.75;0.82;;;;;;;24.82;39.47;101019.22;5026223;28;20511;-73
2022/07/04 10:25:57;;;;;;;2.85;0.80;;;;;;;25.06;36.56;101023.19;5076631;28;20099;-73
2022/07/04 10:28:23;;;;;;;3.20;0.43;;;;;;;25.06;36.20;101024.00;5085081;28;20032;-74
2022/07/04 10:30:55;;;;;;;3.03;0.45;;;;;;;25.02;36.86;101022.28;5079460;28;20032;-71
2022/07/04 10:33:24;;;;;;;2.95;0.57;;;;;;;25.49;34.98;101021.75;5057965;28;20016;-73
2022/07/04 10:36:01;;;;;;;4.90;0.50;;;;;;;25.10;36.62;101018.50;5057591;28;20024;-72
2022/07/04 10:38:28;;;;;;;6.05;0.70;;;;;;;24.90;36.39;101007.09;5050659;28;20040;-74
2022/07/04 10:40:59;;;;;;;1.65;0.50;;;;;;;24.74;37.49;101017.38;5077388;28;20062;-74
2022/07/04 10:43:30;;;;;;;6.55;0.60;;;;;;;24.84;36.67;101030.88;5055643;28;20686;-73
2022/07/04 10:45:56;;;;;;;1.75;0.43;;;;;;;24.52;36.82;101026.97;5056744;28;20051;-75
2022/07/04 10:48:25;;;;;;;3.45;0.47;;;;;;;23.83;37.97;101024.53;5057681;28;20086;-74
2022/07/04 10:51:01;;;;;;;2.50;0.73;;;;;;;23.45;38.39;101019.91;5060218;28;20025;-74
2022/07/04 10:53:27;;;;;;;4.55;0.70;;;;;;;23.03;39.32;101019.78;5057687;28;20037;-73
2022/07/04 10:55:53;;;;;;;1.45;0.30;;;;;;;23.06;40.37;101015.53;5055102;28;20036;-74
2022/07/04 10:58:42;;;;;;;2.20;0.50;;;;;;;23.34;39.51;101013.06;5054772;28;20025;-74
2022/07/04 11:01:15;;;;;;;2.22;0.55;;;;;;;23.41;39.14;101013.34;5047401;28;20033;-74
2022/07/04 11:03:49;;;;;;;1.85;0.65;;;;;;;23.85;38.73;101010.22;5035733;28;20016;-74
2022/07/04 11:06:29;;;;;;;4.03;0.57;;;;;;;24.15;37.30;101010.94;5053204;28;20060;-74
2022/07/04 11:09:24;;;;;;;0.57;0.35;;;;;;;23.83;37.85;101007.75;5042005;28;20021;-74
2022/07/04 11:12:04;;;;;;;1.38;0.73;;;;;;;23.21;38.85;101005.78;5045775;28;20529;-74
2022/07/04 11:14:47;;;;;;;1.85;0.60;;;;;;;22.85;40.01;100999.53;5054054;28;20033;-74
2022/07/04 11:17:15;;;;;;;2.38;0.50;;;;;;;22.74;40.49;100999.09;5036672;28;20086;-76
2022/07/04 11:19:41;;;;;;;3.28;0.65;;;;;;;24.03;38.24;101005.28;5058256;28;20020;-74
2022/07/04 11:22:12;;;;;;;1.98;0.60;;;;;;;25.63;34.99;101010.19;5052375;28;20376;-75
2022/07/04 11:24:39;;;;;;;1.13;0.57;;;;;;;26.91;33.15;101008.47;5056378;28;20032;-74
2022/07/04 11:27:08;;;;;;;1.55;0.43;;;;;;;26.46;33.15;101013.31;5041457;28;20061;-75
2022/07/04 11:29:34;;;;;;;4.43;0.68;;;;;;;25.54;34.19;101001.94;5059144;28;20029;-76
2022/07/04 11:32:09;;;;;;;1.58;0.45;;;;;;;24.82;35.87;100998.84;5034972;28;20033;-75
2022/07/04 11:34:35;;;;;;;3.45;0.38;;;;;;;23.90;37.24;101009.22;5056104;28;20047;-76
2022/07/04 11:37:02;;;;;;;3.38;0.70;;;;;;;23.57;38.65;101015.53;5055564;28;20360;-75
2022/07/04 11:39:28;;;;;;;2.00;0.65;;;;;;;23.97;36.96;101012.25;5055573;28;20442;-74
2022/07/04 11:47:49;;;;;;;1.65;0.50;;;;;;;24.55;37.40;101001.94;5009108;28;20417;-74
2022/07/04 11:50:18;;;;;;;2.20;0.68;;;;;;;24.47;37.75;101014.03;5060450;28;20059;-74
2022/07/04 11:52:49;;;;;;;2.78;0.60;;;;;;;24.32;38.98;101009.13;5072603;28;20028;-73
2022/07/04 11:55:17;;;;;;;3.45;0.70;;;;;;;24.29;38.07;101004.22;5056986;28;20032;-74
2022/07/04 11:57:49;;;;;;;1.67;0.73;;;;;;;23.83;39.44;101010.56;5075716;28;20498;-74
2022/07/04 12:00:17;;;;;;;1.65;0.77;;;;;;;24.13;39.27;101016.03;5073857;28;20032;-74
2022/07/04 12:02:51;;;;;;;3.55;0.60;;;;;;;25.26;36.97;101011.06;5075100;28;20051;-74
2022/07/04 12:05:17;;;;;;;2.42;0.68;;;;;;;24.90;37.09;101007.09;5056011;28;20102;-74
2022/07/04 12:07:48;;;;;;;3.08;0.65;;;;;;;24.18;38.09;101007.47;5064615;28;20025;-73
2022/07/04 12:10:13;;;;;;;4.22;0.60;;;;;;;23.44;40.48;101000.69;5075190;28;20028;-74
2022/07/04 12:12:59;;;;;;;2.42;0.57;;;;;;;22.84;41.41;101001.50;5051267;28;20554;-74
2022/07/04 12:15:35;;;;;;;2.92;0.80;;;;;;;22.90;41.80;100998.53;5056714;28;20024;-73
2022/07/04 12:18:03;;;;;;;2.80;0.70;;;;;;;23.47;40.35;101005.59;5076759;28;20023;-74
2022/07/04 12:20:29;;;;;;;3.63;0.57;;;;;;;24.01;39.93;101002.03;5063142;28;20101;-73
2022/07/04 12:23:00;;;;;;;2.03;0.70;;;;;;;24.38;39.09;101011.31;5040434;28;20119;-75
2022/07/04 12:25:40;;;;;;;1.92;0.60;;;;;;;23.95;39.01;100992.25;5070214;28;20060;-74
2022/07/04 12:28:11;;;;;;;2.47;0.77;;;;;;;23.57;39.16;100990.41;5054473;28;20532;-74
2022/07/04 12:30:47;;;;;;;1.50;0.60;;;;;;;23.32;40.32;100991.09;5071845;28;20031;-75
2022/07/04 12:33:13;;;;;;;0.43;0.30;;;;;;;23.21;40.90;101003.00;5049675;28;20080;-73
2022/07/04 12:36:06;;;;;;;5.72;0.63;;;;;;;22.90;40.96;101001.34;5050838;28;20028;-75
2022/07/04 12:38:37;;;;;;;3.55;0.60;;;;;;;22.98;40.78;100992.91;5039532;28;20025;-74
2022/07/04 12:41:13;;;;;;;2.40;0.63;;;;;;;23.05;40.31;101000.75;5073208;28;20450;-74
2022/07/04 12:43:43;;;;;;;0.65;0.20;;;;;;;23.31;40.47;100997.00;5056148;28;20048;-74
2022/07/04 12:46:26;;;;;;;1.05;0.52;;;;;;;23.17;38.73;100995.31;5054371;28;20144;-75
2022/07/04 12:48:53;;;;;;;2.47;0.30;;;;;;;22.68;40.36;100994.88;5072126;28;20031;-75